AirNav   Air Wisconsin Up To $57,000 Bonus
 
 1030 users online  

CA23 Maguire-California Hospital Heliport
Van Nuys, California, USA

GOING TO VAN NUYS?


FAA INFORMATION EFFECTIVE 25 FEBRUARY 2021

Location

FAA Identifier: CA23
Lat/Long: 34-02-06.0000N 118-15-58.7900W
34-02.100000N 118-15.979833W
34.0350000,-118.2663306
(estimated)
Elevation: 376 ft. / 115 m (estimated)
From city: 2 miles SW of VAN NUYS, CA
Time zone: UTC -8 (UTC -7 during Daylight Saving Time)
Zip code: 90015

Heliport Operations

Heliport use: Private use. Permission required prior to landing
Activation date: 07/2008
Control tower: no
ARTCC: LOS ANGELES CENTER
FSS: HAWTHORNE FLIGHT SERVICE STATION
Attendance: UNATNDD
Segmented circle: no

Heliport Communications

WX ASOS at HHR (8 nm SW): PHONE 310-973-8930
WX AWOS-3PT at CPM (9 nm S): 127.150 (310-631-4958)
WX ASOS at LAX (9 nm SW): PHONE 310-568-1486
WX ASOS at SMO (9 nm W): PHONE 310-392-6453
WX ASOS at BUR (11 nm NW): PHONE 818-841-1384
WX AWOS-3PT at EMT (12 nm E): 118.75 ((626) 444-1107)
WX ASOS at LGB (14 nm SE): PHONE 562-424-0572
WX ASOS at VNY (15 nm NW): PHONE 818-904-9213
WX AWOS-3PT at WHP (15 nm NW): 132.1 (818-899-9820)
WX ASOS at FUL (17 nm SE): PHONE 714-870-1372

Nearby radio navigation aids

VOR radial/distance  VOR name  Freq  Var
SMOr066/9.6SANTA MONICA VOR/DME110.8015E
LAXr038/10.3LOS ANGELES VORTAC113.6015E
VNYr120/15.9VAN NUYS VOR/DME113.1015E
SLIr310/18.4SEAL BEACH VORTAC115.7015E
POMr249/24.0POMONA VORTAC110.4015E
ELBr295/34.3EL TORO VOR/DME117.2014E
FIMr107/36.1FILLMORE VORTAC112.5015E
PMDr181/37.2PALMDALE VORTAC114.5015E
PDZr266/37.3PARADISE VORTAC112.2015E
VTUr082/39.2VENTURA VOR/DME108.2015E

Heliport Services

Runway Information

Helipad H1

Dimensions: 54 x 54 ft. / 16 x 16 m
Surface: ROOF/TOP
Latitude: 34-02.100000N
Longitude: 118-15.979833W
Elevation: 376.0 ft.
Traffic pattern: leftleft

Heliport Ownership and Management from official FAA records

Ownership: Privately-owned
Owner: MAGUIRE PARTNERS & CA HOSPITAL
MAGUIRE PARTNERS 17TH AND GRAND
LOS ANGELES, CA 90015
Phone 310-857-1109
Manager: KRISTOS STAVAOPOULOS
240 W. VENICE BLVD., SUITE 100
LOS ANGELES, CA 90015
Phone 310-857-1109

Additional Remarks

A52-H1 11 FT ELEVATOR 42 FT NE AND 30 FT BLDG 169 FT SE OF PAD.
THIS HELIPAD IS A JOINT VENTURE. CALIFORNIA HOSPITAL MEDICAL CENTER, 1401 SOUTH GRAND AVE, LOS ANGELES CA 90015, PHONE 213-748-2411.
FOR CD CTC LOS ANGELES ARTCC AT 661-575-2079.

Instrument Procedures

There are no published instrument procedures at CA23.

Some nearby airports with instrument procedures:

KHHR - Jack Northrop Field/Hawthorne Municipal Airport (8 nm SW)
KLAX - Los Angeles International Airport (9 nm SW)
KSMO - Santa Monica Municipal Airport (9 nm W)
KBUR - Bob Hope Airport (11 nm NW)
KEMT - San Gabriel Valley Airport (12 nm E)
KLGB - Long Beach Airport (Daugherty Field) (14 nm SE)
KTOA - Zamperini Field Airport (14 nm S)
KVNY - Van Nuys Airport (15 nm NW)
KWHP - Whiteman Airport (15 nm NW)
KFUL - Fullerton Municipal Airport (17 nm SE)
 
Loc | Ops | Rwys | IFR | FBO | Links
Com | Nav | Svcs | Stats | Notes
Aerial photo
No photo
 
Sectional chart

 
Airport distance calculator
Flying to Maguire-California Hospital Heliport? Find the distance to fly.

From to CA23

Sunrise and sunset
Times for 07-Mar-2021
 Local
(UTC-8)
 Zulu
(UTC)
Morning civil twilight05:5013:50
Sunrise06:1514:15
Sunset17:5301:53
Evening civil twilight18:1802:18

Current date and time
Zulu (UTC)  07-Mar-2021 15:03:00
Local (UTC-8)  07-Mar-2021 07:03:00
 
METAR
KCQT 
2nm NE 
071452Z AUTO 00000KT 10SM OVC027 14/09 A3002 RMK AO2 SLP164 T01390089 51006
KHHR 
8nm SW 
071453Z 10003KT 10SM OVC026 13/09 A3003 RMK AO2 SLP168 T01280089 51005 $
KLAX 
8nm SW 
071453Z 00000KT 10SM FEW020 BKN026 OVC200 12/09 A3003 RMK AO2 SLP166 T01220089 51005 $
KSMO 
9nm W 
071451Z AUTO 00000KT 10SM OVC023 13/09 A3003 RMK AO2 SLP166 T01280089 51006
KBUR 
11nm NW 
071453Z 34004KT 10SM BKN020 11/07 A3001 RMK AO2 SLP155 T01060067 51005 $
KEMT 
13nm E 
070245Z 23005KT 10SM CLR 02/10 A2999
KLGB 
14nm SE 
071453Z 00000KT 10SM OVC027 12/10 A3002 RMK AO2 SLP166 T01220100 51005
KWHP 
15nm NW 
070350Z 09004KT 10SM SKC 05/17 A3003
KTOA 
15nm S 
070152Z 23006KT 10SM SCT012 13/11 A2999 RMK LAST
KVNY 
15nm NW 
071451Z AUTO 02004KT 7SM SCT017 11/08 A3001 RMK AO2 SLP159 T01110078 51006
TAF
KLAX 
8nm SW 
071230Z 0713/0818 VRB03KT P6SM BKN017 OVC170 FM071600 23006KT P6SM BKN022 OVC180 FM072000 26012KT P6SM OVC200 FM080400 25007KT P6SM OVC050 FM080800 20006KT P6SM BKN025 OVC050 FM081500 19006KT P6SM SCT025 BKN050
KSMO 
9nm W 
071229Z 0712/0812 11005KT P6SM BKN020 OVC200 FM071600 VRB03KT P6SM BKN022 OVC200 FM072000 23009KT P6SM SCT025 OVC200 FM080300 VRB03KT P6SM BKN050 OVC200
KBUR 
11nm NW 
071121Z 0712/0812 VRB03KT P6SM OVC009 FM071600 15006KT P6SM BKN015 OVC200 FM071730 18008KT P6SM OVC200 FM080300 VRB03KT P6SM BKN200 FM081000 VRB03KT P6SM BKN025 OVC050
KLGB 
14nm SE 
071121Z 0712/0812 VRB03KT P6SM OVC014 FM071600 16005KT P6SM BKN022 BKN200 FM071900 19008KT P6SM BKN200 FM080400 VRB03KT P6SM SCT025 BKN050 FM080800 VRB03KT P6SM OVC025
KVNY 
15nm NW 
071150Z 0712/0812 VRB03KT P6SM OVC012 FM071800 VRB03KT P6SM OVC200 FM072000 15008KT P6SM OVC200 FM080300 VRB03KT P6SM BKN200 FM081000 VRB03KT P6SM BKN025 OVC050
KSLI 
20nm SE 
070500Z 0705/0811 VRB06KT 9999 SKC QNH3000INS TEMPO 0713/0715 4000 BR BECMG 0802/0803 VRB06KT 9999 FEW150 SCT180 QNH3002INS TX17/0723Z TN12/0714Z
NOTAMs
Click for the latest NOTAMs
NOTAMs are issued by the DoD/FAA and will open in a separate window not controlled by AirNav.

 

 
 

Would you like to see your business listed on this page?

 If your business provides an interesting product or service to pilots, flight crews, aircraft, or users of the Maguire-California Hospital Heliport, you should consider listing it here.  To start the listing process, click on the button below
 
Add a business
 

Other Pages about Maguire-California Hospital Heliport

Update a link
 
Copyright © AirNav, LLC. All rights reserved. Privacy Policy  Contact